Latest Weather Observations for Oakey

IDQ60801

Issued at 3:32 pm EST Monday 2 May 2016 (issued every 30 minutes, with the page automatically refreshed every 10 minutes)

About weather observations | Map of weather stations | Latest weather observations for QLD | Other Formats
Station Details ID: 041359 Name: OAKEY AERO Lat: -27.40 Lon: 151.74 Height: 405.69 m
Data from the previous 72 hours. | See also: Recent months at Oakey
Date/Time
EST
Temp
°C
App
Temp
°C
Dew
Point
Rel
Hum
%
Delta-T
°C
Wind Press
QNH
hPa
Press
MSL
hPa
Rain
since 9 am
mm
Dir
 
Spd
km/h
Gust
km/h
Spd
kts
Gust
kts
02/03:30pm 26.4 24.4 13.9 46 7.5 NE 17 22 9 12 1014.5 1013.8 0.0
02/03:00pm 26.8 24.6 14.5 46 7.5 NE 19 26 10 14 1014.2 1013.5 0.0
02/02:30pm 27.5 25.2 13.1 41 8.6 NE 17 22 9 12 1014.2 1013.5 0.0
02/02:00pm 27.8 24.6 11.8 37 9.4 NNE 20 24 11 13 1014.2 1013.5 0.0
02/01:30pm 27.5 26.0 14.2 44 8.1 NE 15 22 8 12 1014.6 1013.9 0.0
02/01:00pm 27.7 25.1 12.1 38 9.2 NE 17 26 9 14 1015.2 1014.5 0.0
02/12:30pm 26.8 25.0 13.2 43 8.1 NE 15 20 8 11 1015.8 1015.1 0.0
02/12:00pm 26.7 24.5 12.0 40 8.6 NE 15 24 8 13 1016.7 1016.0 0.0
02/11:30am 26.9 24.6 11.8 39 8.8 NE 15 22 8 12 1017.0 1016.3 0.0
02/11:00am 26.6 24.3 13.0 43 8.1 NE 17 28 9 15 1017.3 1016.6 0.0
02/10:30am 25.2 24.1 14.3 50 6.6 NE 13 20 7 11 1017.9 1017.3 0.0
02/10:00am 24.0 24.2 14.7 56 5.6 SSE 7 13 4 7 1018.8 1018.1 0.0
02/09:30am 22.8 22.7 15.9 65 4.2 SE 11 13 6 7 1018.9 1018.2 0.0
02/09:00am 21.2 21.0 15.7 71 3.3 NNE 11 15 6 8 1018.9 1018.2 0.0
02/08:30am 19.2 19.7 14.9 76 2.6 ENE 6 7 3 4 1018.9 1018.2 0.0
02/08:00am 17.8 19.1 14.1 79 2.2 CALM 0 0 0 0 1018.8 1018.1 0.0
02/07:30am 16.9 17.0 14.0 83 1.7 NE 6 6 3 3 1018.5 1017.8 0.0
02/07:00am 15.7 16.8 13.4 86 1.3 CALM 0 0 0 0 1018.3 1017.6 0.0
02/06:30am 14.8 15.6 12.7 87 1.2 CALM 0 4 0 2 1018.4 1017.7 0.0
02/06:00am 14.3 13.6 12.0 86 1.3 NE 7 9 4 5 1018.0 1017.4 0.0
02/05:30am 14.2 13.3 11.5 84 1.5 NE 7 9 4 5 1017.7 1017.1 0.0
02/05:00am 14.9 13.8 11.9 82 1.7 NE 9 9 5 5 1017.5 1016.8 0.0
02/04:30am 15.5 15.2 12.6 83 1.6 NNE 6 9 3 5 1017.4 1016.7 0.0
02/04:00am 15.9 15.4 12.5 80 1.9 N 7 9 4 5 1017.4 1016.7 0.0
02/03:30am 16.3 15.4 12.7 79 2.0 N 9 15 5 8 1017.1 1016.4 0.0
02/03:00am 16.6 16.4 12.9 79 2.1 NE 6 7 3 4 1016.9 1016.2 0.0
02/02:30am 17.8 18.8 13.1 74 2.7 CALM 0 0 0 0 1017.2 1016.5 0.0
02/02:00am 17.9 18.1 13.0 73 2.8 NNE 4 7 2 4 1017.3 1016.6 0.0
02/01:30am 19.0 18.3 13.2 69 3.3 SW 9 13 5 7 1017.4 1016.7 0.0
02/01:00am 19.2 16.9 14.0 72 3.0 WSW 19 22 10 12 1017.6 1016.9 0.0
02/12:30am 18.3 17.6 13.2 72 2.9 W 9 13 5 7 1017.5 1016.8 0.0
02/12:00am 18.5 18.1 13.1 71 3.1 NW 7 9 4 5 1017.4 1016.7 0.0
 
Date/Time
EST
Temp
°C
App
Temp
°C
Dew
Point
Rel
Hum
%
Delta-T
°C
Wind Press
QNH
hPa
Press
MSL
hPa
Rain
since 9 am
mm
Dir
 
Spd
km/h
Gust
km/h
Spd
kts
Gust
kts
01/11:30pm 19.6 18.3 13.8 69 3.4 NE 13 17 7 9 1017.4 1016.7 0.0
01/11:00pm 19.8 19.0 14.0 69 3.4 NNE 11 15 6 8 1017.8 1017.2 0.0
01/10:30pm 20.3 21.5 13.7 66 3.9 CALM 0 0 0 0 1018.5 1017.8 0.0
01/10:00pm 21.4 22.2 13.8 62 4.5 SSE 2 6 1 3 1018.9 1018.2 0.0
01/09:30pm 22.2 22.8 14.3 61 4.7 SSE 4 7 2 4 1019.2 1018.5 0.0
01/09:00pm 22.1 22.1 14.2 61 4.7 ENE 7 9 4 5 1019.2 1018.5 0.0
01/08:30pm 22.3 21.9 14.2 60 4.8 SE 9 11 5 6 1019.1 1018.4 0.0
01/08:00pm 22.4 22.8 14.8 62 4.6 SE 6 11 3 6 1018.9 1018.2 0.0
01/07:30pm 23.0 21.6 14.6 59 5.1 S 15 22 8 12 1018.6 1017.9 0.0
01/07:00pm 23.4 21.3 15.2 60 5.0 SSW 20 32 11 17 1018.3 1017.6 0.0
01/06:30pm 24.0 21.1 16.0 61 4.9 SSW 26 35 14 19 1018.3 1017.6 0.0
01/06:13pm 24.6 20.9 16.1 59 5.3 SSW 30 50 16 27 1018.0 1017.4 0.0
01/06:00pm 25.0 21.4 16.2 58 5.5 SSW 30 37 16 20 1017.6 1016.9 0.0
01/05:30pm 25.9 21.9 15.3 52 6.5 WSW 30 44 16 24 1017.1 1016.4 0.0
01/05:24pm 26.6 25.3 14.7 48 7.3 W 15 35 8 19 1016.8 1016.1 0.0
01/05:00pm 27.5 26.4 13.1 41 8.6 W 11 13 6 7 1016.6 1015.9 0.0
01/04:30pm 29.1 27.8 12.5 36 9.9 WSW 11 20 6 11 1016.3 1015.6 0.0
01/04:00pm 28.9 26.9 12.8 37 9.6 W 15 20 8 11 1016.2 1015.5 0.0
01/03:30pm 29.1 27.2 12.9 37 9.7 W 15 26 8 14 1016.1 1015.4 0.0
01/03:00pm 29.5 26.6 12.9 36 10.0 WSW 20 26 11 14 1016.2 1015.5 0.0
01/02:30pm 29.0 27.2 13.2 37 9.5 W 15 24 8 13 1016.1 1015.4 0.0
01/02:00pm 28.5 26.4 13.6 40 9.0 WSW 17 28 9 15 1016.2 1015.5 0.0
01/01:30pm 29.4 28.6 15.1 41 8.9 SW 13 26 7 14 1016.3 1015.6 0.0
01/01:00pm 28.2 27.8 15.1 44 8.1 SSW 11 19 6 10 1016.7 1016.0 0.0
01/12:30pm 27.5 26.9 14.5 45 7.9 S 11 20 6 11 1017.4 1016.7 0.0
01/12:00pm 28.4 29.2 16.3 47 7.6 WNW 7 13 4 7 1017.8 1017.2 0.0
01/11:30am 26.2 26.6 16.2 54 6.2 S 9 15 5 8 1018.5 1017.8 0.0
01/11:00am 25.4 26.7 17.1 60 5.2 WSW 6 9 3 5 1019.1 1018.4 0.0
01/10:30am 25.9 27.3 17.8 61 5.2 ENE 7 13 4 7 1019.5 1018.8 0.0
01/10:00am 24.6 24.9 17.8 66 4.3 NE 13 19 7 10 1019.8 1019.2 0.0
01/09:47am 23.7 24.0 17.9 70 3.7 NE 13 19 7 10 1020.0 1018.7 0.0
01/09:30am 23.5 24.3 18.2 72 3.4 NE 11 20 6 11 1020.4 1019.1 0.0
01/09:00am 23.1 23.4 18.0 73 3.2 ENE 13 19 7 10 1020.6 1019.3 0.0
01/08:30am 21.8 22.1 17.8 78 2.5 NE 13 17 7 9 1020.9 1019.5 0.0
01/08:00am 21.4 22.9 18.0 81 2.1 ENE 7 11 4 6 1020.9 1019.5 0.0
01/07:30am 20.4 21.5 18.0 86 1.5 ENE 9 15 5 8 1020.5 1019.2 0.0
01/07:15am 20.0 21.6 18.3 90 1.1 ENE 7 9 4 5 1020.4 1019.1 0.0
01/07:00am 19.5 20.6 18.0 91 0.9 E 9 9 5 5 1020.1 1018.8 0.0
01/06:30am 19.5 20.4 17.5 88 1.2 NE 9 11 5 6 1019.8 1018.5 0.0
01/06:12am 19.7 19.8 17.5 87 1.4 ENE 13 15 7 8 1019.7 1018.4 0.0
01/06:00am 19.8 19.9 17.4 86 1.5 ENE 13 15 7 8 1019.7 1018.4 0.0
01/05:30am 20.0 20.2 17.6 86 1.5 ENE 13 15 7 8 1019.6 1018.3 0.0
01/05:00am 20.0 20.1 17.4 85 1.6 ENE 13 17 7 9 1019.2 1017.9 0.0
01/04:30am 20.1 20.9 17.3 84 1.7 ENE 9 13 5 7 1019.2 1017.9 0.0
01/04:00am 19.8 20.3 17.4 86 1.5 ENE 11 17 6 9 1018.9 1017.5 0.0
01/03:42am 19.0 19.3 17.0 88 1.2 ENE 11 15 6 8 1018.9 1017.5 0.0
01/03:30am 18.6 18.2 16.2 86 1.5 ENE 13 15 7 8 1018.9 1017.5 0.0
01/03:25am 18.8 18.4 16.2 85 1.6 ENE 13 17 7 9 1018.8 1017.4 0.0
01/03:00am 19.5 18.5 16.7 84 1.7 ENE 17 20 9 11 1018.9 1017.5 0.0
01/02:30am 19.7 18.9 17.1 85 1.6 ENE 17 24 9 13 1019.1 1017.8 0.0
01/02:02am 19.6 18.1 16.8 84 1.7 ENE 20 30 11 16 1019.3 1018.0 0.0
01/02:00am 19.6 18.1 16.8 84 1.7 ENE 20 30 11 16 1019.4 1018.1 0.0
01/01:47am 19.3 18.3 16.5 84 1.7 ENE 17 24 9 13 1019.3 1018.0 0.0
01/01:30am 19.6 18.6 16.6 83 1.8 ENE 17 22 9 12 1019.4 1018.1 0.0
01/01:00am 19.6 18.5 17.2 86 1.5 NE 19 24 10 13 1019.6 1018.3 0.0
01/12:30am 19.5 18.5 17.5 88 1.2 ENE 19 28 10 15 1020.0 1018.7 0.0
01/12:04am 18.2 17.2 16.7 91 0.9 ENE 17 19 9 10 1020.3 1019.0 0.0
01/12:00am 18.3 17.4 16.8 91 0.9 ENE 17 19 9 10 1020.2 1018.9 0.0
 
Date/Time
EST
Temp
°C
App
Temp
°C
Dew
Point
Rel
Hum
%
Delta-T
°C
Wind Press
QNH
hPa
Press
MSL
hPa
Rain
since 9 am
mm
Dir
 
Spd
km/h
Gust
km/h
Spd
kts
Gust
kts
30/11:30pm 18.3 17.3 16.5 89 1.1 ENE 17 20 9 11 1020.5 1019.2 0.0
30/11:00pm 18.7 17.8 16.9 89 1.1 NE 17 19 9 10 1020.8 1019.4 0.0
30/10:30pm 19.0 18.5 16.8 87 1.4 ENE 15 19 8 10 1020.9 1019.5 0.0
30/10:00pm 19.3 18.8 16.9 86 1.5 NE 15 19 8 10 1021.1 1019.7 0.0
30/09:30pm 20.2 19.4 17.2 83 1.9 ENE 17 20 9 11 1021.0 1019.6 0.0
30/09:00pm 20.5 19.4 17.3 82 2.0 ENE 19 22 10 12 1020.9 1019.5 0.0
30/08:30pm 20.9 19.7 17.5 81 2.1 NE 20 26 11 14 1020.8 1019.4 0.0
30/08:00pm 21.5 20.3 17.1 76 2.7 NE 19 24 10 13 1020.5 1019.2 0.0
30/07:30pm 22.1 20.6 16.4 70 3.5 ENE 19 24 10 13 1020.4 1019.1 0.0
30/07:00pm 22.6 21.3 15.9 66 4.1 ENE 17 20 9 11 1019.8 1018.5 0.0
30/06:30pm 22.3 21.0 14.9 63 4.5 NE 15 19 8 10 1019.7 1018.4 0.0
30/06:00pm 23.2 22.0 15.0 60 5.0 NE 15 20 8 11 1019.5 1018.2 0.0
30/05:30pm 24.1 22.7 14.5 55 5.8 NE 15 17 8 9 1019.4 1018.1 0.0
30/05:00pm 25.6 23.9 14.7 51 6.6 NE 17 20 9 11 1019.0 1017.6 0.0
30/04:30pm 26.7 24.6 14.8 48 7.3 ENE 19 24 10 13 1018.7 1017.3 0.0
30/04:00pm 27.1 25.4 14.8 47 7.5 NE 17 22 9 12 1018.6 1017.2 0.0
30/03:30pm 27.6 26.1 15.3 47 7.6 NE 17 24 9 13 1018.6 1017.2 0.0
30/03:00pm 26.3 25.0 14.7 48 7.1 NE 15 24 8 13 1018.7 1017.3 0.0
30/02:30pm 26.3 24.9 14.4 48 7.2 NE 15 22 8 12 1018.8 1017.4 0.0
30/02:00pm 27.7 25.6 14.7 45 8.0 NE 19 26 10 14 1019.0 1017.6 0.0
30/01:30pm 28.5 26.9 15.1 44 8.3 NE 17 39 9 21 1019.2 1017.9 0.0
30/01:00pm 28.4 26.3 14.6 43 8.5 NE 19 26 10 14 1019.6 1018.3 0.0
30/12:30pm 27.1 24.9 14.5 46 7.7 NE 19 28 10 15 1020.0 1018.7 0.0
30/12:00pm 26.0 24.2 14.5 49 7.0 NE 17 26 9 14 1020.9 1019.5 0.0
30/11:30am 25.2 23.3 15.2 54 6.1 NE 19 28 10 15 1021.4 1020.1 0.0
30/11:00am 25.3 23.5 15.6 55 6.0 NE 19 26 10 14 1021.8 1020.5 0.0
30/10:30am 25.2 23.7 16.4 58 5.5 NE 19 30 10 16 1022.3 1021.0 0.0
30/10:00am 24.7 23.1 16.4 60 5.2 NE 20 30 11 16 1022.7 1021.4 0.0
30/09:30am 24.1 22.7 16.6 63 4.7 NE 19 24 10 13 1022.9 1021.6 0.0
30/09:00am 23.4 22.1 17.2 68 3.9 ENE 20 28 11 15 1023.0 1021.7 0.0
30/08:30am 21.4 19.1 16.6 74 3.0 ENE 24 28 13 15 1023.0 1021.7 0.0
30/08:00am 21.2 21.2 17.2 78 2.5 ENE 13 19 7 10 1022.9 1021.6 0.0
30/07:30am 20.0 20.0 17.2 84 1.7 ENE 13 19 7 10 1022.5 1021.2 0.0
30/07:23am 19.5 19.8 16.9 85 1.6 ENE 11 15 6 8 1022.5 1021.2 0.0
30/07:00am 19.4 20.2 17.2 87 1.4 ENE 9 13 5 7 1022.4 1021.1 0.0
30/06:30am 18.6 19.3 17.1 91 0.9 NE 9 11 5 6 1022.3 1021.0 0.0
30/06:00am 18.4 19.1 17.1 92 0.8 NE 9 11 5 6 1021.9 1020.6 0.0
30/05:31am 17.4 17.4 16.3 93 0.7 ENE 11 15 6 8 1021.8 1020.5 0.0
30/05:30am 17.3 17.3 16.2 93 0.7 ENE 11 15 6 8 1021.8 1020.5 0.0
30/05:03am 17.3 17.7 16.2 93 0.7 ENE 9 11 5 6 1021.6 1020.3 0.0
30/05:00am 17.2 17.5 16.1 93 0.7 ENE 9 11 5 6 1021.6 1020.3 0.0
30/04:32am 17.2 17.2 16.2 94 0.6 ENE 11 13 6 7 1021.3 1020.0 0.0
30/04:30am 17.3 17.3 16.3 94 0.6 ENE 11 13 6 7 1021.3 1020.0 0.0
30/04:14am 17.2 17.1 15.9 92 0.8 NE 11 11 6 6 1021.4 1020.1 0.0
30/04:00am 17.6 17.3 16.5 93 0.7 ENE 13 15 7 8 1021.1 1019.7 0.0
30/03:54am 17.9 17.9 17.1 95 0.5 ENE 13 15 7 8 1021.1 1019.7 0.0
30/03:30am 17.5 17.9 16.4 93 0.7 ENE 9 11 5 6 1021.3 1020.0 0.0
30/03:16am 17.4 16.7 16.4 94 0.6 ENE 15 15 8 8 1021.1 1019.7 0.0
30/03:00am 17.2 17.3 16.4 95 0.5 ENE 11 13 6 7 1021.3 1020.0 0.0
30/02:51am 17.0 17.4 16.2 95 0.5 ENE 9 11 5 6 1021.4 1020.1 0.0
30/02:30am 16.7 16.5 15.7 94 0.6 ENE 11 11 6 6 1021.4 1020.1 0.0
30/02:00am 16.4 16.0 15.3 93 0.6 ENE 11 13 6 7 1021.6 1020.3 0.0
30/01:30am 16.7 16.7 15.2 91 0.9 E 9 11 5 6 1022.0 1020.7 0.0
30/01:00am 17.2 16.6 15.7 91 0.9 ENE 13 15 7 8 1022.1 1020.8 0.0
30/12:30am 17.5 16.4 16.4 93 0.7 ENE 17 19 9 10 1022.5 1021.2 0.0
30/12:00am 17.3 16.6 15.5 89 1.1 ENE 13 15 7 8 1022.6 1021.3 0.0
 
Date/Time
EST
Temp
°C
App
Temp
°C
Dew
Point
Rel
Hum
%
Delta-T
°C
Wind Press
QNH
hPa
Press
MSL
hPa
Rain
since 9 am
mm
Dir
 
Spd
km/h
Gust
km/h
Spd
kts
Gust
kts
29/11:30pm 17.6 17.0 15.6 88 1.2 ENE 13 17 7 9 1022.8 1021.5 0.0
29/11:00pm 18.1 17.7 16.1 88 1.2 ENE 13 17 7 9 1023.2 1021.9 0.0
29/10:30pm 18.2 17.7 15.8 86 1.4 ENE 13 17 7 9 1023.6 1022.3 0.0
29/10:00pm 18.3 17.8 15.9 86 1.4 ENE 13 19 7 10 1023.5 1022.2 0.0
29/09:30pm 18.0 17.0 15.6 86 1.4 ENE 15 22 8 12 1023.5 1022.2 0.0
29/09:00pm 18.7 18.0 16.5 87 1.3 ENE 15 20 8 11 1023.4 1022.1 0.0
29/08:30pm 18.5 17.7 16.1 86 1.5 ENE 15 17 8 9 1023.4 1022.1 0.0
29/08:00pm 18.7 18.3 16.1 85 1.6 ENE 13 17 7 9 1023.2 1021.9 0.0
29/07:30pm 19.1 18.0 16.3 84 1.7 ENE 17 20 9 11 1022.8 1021.5 0.0
29/07:00pm 19.6 17.9 16.3 81 2.0 ENE 20 26 11 14 1022.5 1021.2 0.0
29/06:30pm 19.6 18.7 15.9 79 2.2 ENE 15 20 8 11 1022.4 1021.1 0.0
29/06:00pm 20.1 18.5 15.9 77 2.5 ENE 19 26 10 14 1021.9 1020.6 0.0
29/05:30pm 20.4 18.5 15.8 75 2.8 ENE 20 26 11 14 1021.7 1020.4 0.0
29/05:00pm 21.4 18.9 16.1 72 3.2 ENE 24 35 13 19 1021.6 1020.3 0.0
29/04:30pm 21.9 18.6 16.0 69 3.6 ENE 28 35 15 19 1021.2 1019.9 0.0
29/04:00pm 23.0 20.5 16.1 65 4.2 ENE 24 30 13 16 1021.1 1019.7 0.0

Other Formats:

Comma delimited format used in spreadsheet applications
http://www.bom.gov.au/fwo/IDQ60801/IDQ60801.94552.axf

JavaScript Object Notation format (JSON) in row-major order
http://www.bom.gov.au/fwo/IDQ60801/IDQ60801.94552.json